createdAt,value
2022-12-18T00:01:21.097Z,-5.55
2022-12-18T00:03:48.515Z,-5.92
2022-12-18T00:06:16.327Z,-6.21
2022-12-18T00:08:44.482Z,-6.04
2022-12-18T00:11:16.930Z,-5.87
2022-12-18T00:13:44.073Z,-5.54
2022-12-18T00:16:13.461Z,-5.37
2022-12-18T00:18:40.806Z,-5.47
2022-12-18T00:21:11.022Z,-5.35
2022-12-18T00:23:40.314Z,-5.29
2022-12-18T00:26:10.992Z,-5.19
2022-12-18T00:28:37.830Z,-5.25
2022-12-18T00:31:06.437Z,-5.68
2022-12-18T00:33:33.483Z,-5.74
2022-12-18T00:36:05.304Z,-6.40
2022-12-18T00:38:32.872Z,-6.39
2022-12-18T00:40:59.478Z,-6.55
2022-12-18T00:43:26.005Z,-5.90
2022-12-18T00:45:53.570Z,-5.57
2022-12-18T00:48:20.178Z,-5.39
2022-12-18T00:50:48.598Z,-5.57
2022-12-18T00:53:15.525Z,-5.45
2022-12-18T00:55:42.583Z,-5.38
2022-12-18T00:58:10.393Z,-5.40
2022-12-18T01:00:37.218Z,-5.34
2022-12-18T01:03:04.666Z,-5.29
2022-12-18T01:05:31.518Z,-5.43
2022-12-18T01:07:58.552Z,-6.33
2022-12-18T01:10:25.937Z,-6.55
2022-12-18T01:12:52.692Z,-6.29
2022-12-18T01:15:20.274Z,-6.79
2022-12-18T01:17:46.849Z,-6.29
2022-12-18T01:20:14.028Z,-5.92
2022-12-18T01:22:40.777Z,-5.79
2022-12-18T01:25:08.160Z,-5.71
2022-12-18T01:27:35.230Z,-5.81
2022-12-18T01:30:04.963Z,-5.83
2022-12-18T01:32:32.610Z,-5.74
2022-12-18T01:34:59.453Z,-6.07
2022-12-18T01:37:27.411Z,-6.22
2022-12-18T01:39:55.217Z,-5.94
2022-12-18T01:42:22.480Z,-5.77
2022-12-18T01:45:00.698Z,-5.84
2022-12-18T01:47:46.292Z,-5.87
2022-12-18T01:50:23.890Z,-5.68
2022-12-18T01:53:00.480Z,-5.65
2022-12-18T01:55:30.421Z,-5.85
2022-12-18T01:57:59.597Z,-6.06
2022-12-18T02:00:27.465Z,-5.92
2022-12-18T02:02:54.548Z,-5.71
2022-12-18T02:05:57.090Z,-5.63
2022-12-18T02:08:33.894Z,-5.93
2022-12-18T02:11:45.710Z,-5.96
2022-12-18T02:14:24.994Z,-6.10
2022-12-18T02:17:10.944Z,-6.32
2022-12-18T02:20:03.605Z,-6.22
2022-12-18T02:22:54.958Z,-6.18
2022-12-18T02:25:43.583Z,-6.21
2022-12-18T02:28:14.306Z,-6.57
2022-12-18T02:30:43.190Z,-6.34
2022-12-18T02:33:13.300Z,-6.08
2022-12-18T02:35:42.641Z,-6.00
2022-12-18T02:38:10.281Z,-6.55
2022-12-18T02:40:39.945Z,-7.18
2022-12-18T02:43:14.181Z,-6.99
2022-12-18T02:45:49.628Z,-6.57
2022-12-18T02:48:20.666Z,-6.28
2022-12-18T02:51:04.997Z,-6.16
2022-12-18T02:53:41.447Z,-5.96
2022-12-18T02:56:51.261Z,-6.07
2022-12-18T02:59:27.461Z,-6.34
2022-12-18T03:02:05.739Z,-6.46
2022-12-18T03:04:49.248Z,-6.16
2022-12-18T03:07:24.649Z,-6.47
2022-12-18T03:09:56.217Z,-6.89
2022-12-18T03:12:35.876Z,-7.54
2022-12-18T03:15:17.444Z,-7.47
2022-12-18T03:18:02.376Z,-7.00
2022-12-18T03:20:35.102Z,-6.58
2022-12-18T03:23:12.363Z,-6.34
2022-12-18T03:25:42.702Z,-6.05
2022-12-18T03:28:15.553Z,-5.77
2022-12-18T03:30:45.765Z,-5.68
2022-12-18T03:33:26.628Z,-5.79
2022-12-18T03:35:55.130Z,-5.92
2022-12-18T03:38:23.216Z,-6.02
2022-12-18T03:41:16.949Z,-6.22
2022-12-18T03:44:31.070Z,-6.56
2022-12-18T03:47:21.559Z,-6.85
2022-12-18T03:49:56.831Z,-6.61
2022-12-18T03:52:41.708Z,-6.37
2022-12-18T03:55:10.628Z,-6.15
2022-12-18T03:57:39.570Z,-6.13
2022-12-18T04:00:16.188Z,-6.23
2022-12-18T04:02:57.870Z,-6.17
2022-12-18T04:05:35.800Z,-6.34
2022-12-18T04:08:03.226Z,-6.94
2022-12-18T04:10:31.382Z,-6.74
2022-12-18T04:12:59.597Z,-6.49
2022-12-18T04:15:26.911Z,-6.36
2022-12-18T04:17:53.610Z,-6.36
2022-12-18T04:20:23.857Z,-6.54
2022-12-18T04:22:50.496Z,-6.41
2022-12-18T04:25:19.360Z,-6.58
2022-12-18T04:28:18.416Z,-6.45
2022-12-18T04:30:44.964Z,-6.27
2022-12-18T04:33:13.427Z,-6.24
2022-12-18T04:35:41.228Z,-6.27
2022-12-18T04:38:11.754Z,-6.37
2022-12-18T04:40:39.177Z,-6.38
2022-12-18T04:43:12.040Z,-6.51
2022-12-18T04:45:38.900Z,-6.93
2022-12-18T04:48:07.134Z,-6.64
2022-12-18T04:50:33.670Z,-6.30
2022-12-18T04:53:00.224Z,-6.06
2022-12-18T04:55:27.858Z,-5.98
2022-12-18T04:57:54.676Z,-6.06
2022-12-18T05:00:21.249Z,-6.03
2022-12-18T05:02:48.056Z,-6.08
2022-12-18T05:05:14.782Z,-6.23
2022-12-18T05:07:41.387Z,-6.14
2022-12-18T05:10:08.505Z,-6.18
2022-12-18T05:12:35.023Z,-6.13
2022-12-18T05:15:01.548Z,-6.11
2022-12-18T05:17:28.065Z,-5.98
2022-12-18T05:19:54.554Z,-6.03
2022-12-18T05:22:21.160Z,-5.87
2022-12-18T05:24:47.978Z,-5.77
2022-12-18T05:27:14.479Z,-5.65
2022-12-18T05:29:40.989Z,-5.85
2022-12-18T05:32:07.495Z,-5.95
2022-12-18T05:34:34.402Z,-5.95
2022-12-18T05:37:00.897Z,-6.07
2022-12-18T05:39:27.590Z,-6.03
2022-12-18T05:41:54.154Z,-6.05
2022-12-18T05:44:20.676Z,-6.10
2022-12-18T05:46:47.259Z,-5.95
2022-12-18T05:49:13.780Z,-5.79
2022-12-18T05:51:40.325Z,-5.55
2022-12-18T05:54:07.926Z,-5.69
2022-12-18T05:56:34.709Z,-5.69
2022-12-18T05:59:01.314Z,-5.75
2022-12-18T06:01:28.086Z,-5.80
2022-12-18T06:03:55.730Z,-5.76
2022-12-18T06:06:27.906Z,-5.71
2022-12-18T06:08:55.641Z,-5.71
2022-12-18T06:11:25.578Z,-5.70
2022-12-18T06:13:58.169Z,-5.90
2022-12-18T06:16:25.226Z,-6.13
2022-12-18T06:18:51.815Z,-5.94
2022-12-18T06:21:18.436Z,-5.85
2022-12-18T06:23:44.965Z,-5.99
2022-12-18T06:26:13.403Z,-6.50
2022-12-18T06:28:39.959Z,-6.85
2022-12-18T06:31:08.023Z,-6.42
2022-12-18T06:33:35.693Z,-6.16
2022-12-18T06:36:10.668Z,-6.01
2022-12-18T06:38:38.967Z,-5.93
2022-12-18T06:41:10.781Z,-5.90
2022-12-18T06:43:37.582Z,-6.17
2022-12-18T06:46:05.585Z,-6.54
2022-12-18T06:48:33.365Z,-6.86
2022-12-18T06:51:00.007Z,-6.84
2022-12-18T06:53:27.160Z,-6.52
2022-12-18T06:55:53.777Z,-6.29
2022-12-18T06:58:20.387Z,-6.04
2022-12-18T07:00:47.623Z,-5.99
2022-12-18T07:03:14.357Z,-5.95
2022-12-18T07:05:41.812Z,-5.96
2022-12-18T07:08:09.097Z,-5.94
2022-12-18T07:10:47.563Z,-6.06
2022-12-18T07:13:16.762Z,-6.06
2022-12-18T07:15:44.112Z,-6.07
2022-12-18T07:18:11.589Z,-6.06
2022-12-18T07:20:38.126Z,-5.96
2022-12-18T07:23:06.094Z,-5.93
2022-12-18T07:25:36.599Z,-5.94
2022-12-18T07:28:04.034Z,-5.86
2022-12-18T07:30:30.662Z,-5.94
2022-12-18T07:32:57.306Z,-6.10
2022-12-18T07:35:25.399Z,-6.06
2022-12-18T07:37:52.348Z,-5.91
2022-12-18T07:40:19.115Z,-5.96
2022-12-18T07:42:45.704Z,-6.00
2022-12-18T07:45:12.250Z,-6.26
2022-12-18T07:47:39.251Z,-6.07
2022-12-18T07:50:06.612Z,-5.90
2022-12-18T07:52:33.196Z,-5.83
2022-12-18T07:54:59.971Z,-5.81
2022-12-18T07:57:52.541Z,-5.57
2022-12-18T08:00:13.689Z,-5.53
2022-12-18T08:02:40.344Z,-5.42
2022-12-18T08:05:09.297Z,-5.35
2022-12-18T08:07:35.876Z,-5.34
2022-12-18T08:10:02.582Z,-5.36
2022-12-18T08:12:29.115Z,-5.33
2022-12-18T08:14:55.647Z,-5.55
2022-12-18T08:17:22.268Z,-5.55
2022-12-18T08:19:48.880Z,-5.40
2022-12-18T08:22:15.385Z,-5.31
2022-12-18T08:24:41.970Z,-5.14
2022-12-18T08:29:55.043Z,-4.89
2022-12-18T08:32:21.607Z,-4.59
2022-12-18T08:34:48.339Z,-4.63
2022-12-18T08:37:14.873Z,-4.43
2022-12-18T08:39:41.503Z,-4.37
2022-12-18T08:42:26.553Z,-4.32
2022-12-18T08:44:53.072Z,-4.07
2022-12-18T08:47:19.567Z,-3.80
2022-12-18T08:49:46.397Z,-3.63
2022-12-18T08:52:15.869Z,-3.64
2022-12-18T08:54:42.435Z,-3.65
2022-12-18T08:57:09.000Z,-3.57
2022-12-18T08:59:35.586Z,-3.58
2022-12-18T09:02:02.338Z,-3.53
2022-12-18T09:04:29.102Z,-3.47
2022-12-18T09:06:57.022Z,-3.48
2022-12-18T09:09:23.554Z,-3.40
2022-12-18T09:11:50.133Z,-3.40
2022-12-18T09:14:16.717Z,-3.27
2022-12-18T09:16:43.762Z,-3.10
2022-12-18T09:19:10.648Z,-3.10
2022-12-18T09:21:37.614Z,-2.93
2022-12-18T09:24:09.040Z,-2.86
2022-12-18T09:26:36.062Z,-2.76
2022-12-18T09:29:03.918Z,-2.95
2022-12-18T09:31:30.698Z,-2.81
2022-12-18T09:33:57.659Z,-2.68
2022-12-18T09:36:24.349Z,-2.65
2022-12-18T09:38:51.041Z,-2.44
2022-12-18T09:41:36.564Z,-2.37
2022-12-18T09:44:12.101Z,-2.37
2022-12-18T09:46:48.674Z,-2.32
2022-12-18T09:49:19.264Z,-2.22
2022-12-18T09:51:56.971Z,-2.08
2022-12-18T09:54:31.986Z,-2.07
2022-12-18T09:56:58.609Z,-2.08
2022-12-18T09:59:31.729Z,-2.15
2022-12-18T10:01:58.516Z,-2.07
2022-12-18T10:04:31.466Z,-1.88
2022-12-18T10:07:17.291Z,-1.63
2022-12-18T10:10:07.899Z,-1.69
2022-12-18T10:16:41.467Z,-1.49
2022-12-18T10:19:29.913Z,-1.42
2022-12-18T10:22:18.091Z,-1.37
2022-12-18T10:24:59.870Z,-1.32
2022-12-18T10:27:27.966Z,-1.49
2022-12-18T10:29:54.980Z,-1.34
2022-12-18T10:32:27.250Z,-1.23
2022-12-18T10:35:00.473Z,-1.34
2022-12-18T10:37:30.527Z,-1.18
2022-12-18T10:40:18.427Z,-1.06
2022-12-18T10:43:04.339Z,-1.13
2022-12-18T10:45:30.886Z,-1.13
2022-12-18T10:47:57.502Z,-1.06
2022-12-18T10:51:01.301Z,-1.10
2022-12-18T10:53:26.183Z,-1.13
2022-12-18T10:55:55.428Z,-0.98
2022-12-18T10:58:32.470Z,-0.99
2022-12-18T11:01:10.490Z,-0.97
2022-12-18T11:03:46.366Z,-0.97
2022-12-18T11:06:18.306Z,-0.85
2022-12-18T11:08:59.261Z,-0.73
2022-12-18T11:11:26.398Z,-0.65
2022-12-18T11:14:07.747Z,-0.53
2022-12-18T11:19:42.185Z,-0.62
2022-12-18T11:22:27.141Z,-0.69
2022-12-18T11:28:25.902Z,-0.47
2022-12-18T11:31:21.717Z,-0.71
2022-12-18T11:34:27.398Z,-0.72
2022-12-18T11:36:48.268Z,-0.66
2022-12-18T11:39:55.918Z,-0.62
2022-12-18T11:42:50.618Z,-0.57
2022-12-18T11:45:30.253Z,-0.47
2022-12-18T11:48:02.692Z,-0.48
2022-12-18T11:50:44.923Z,-0.50
2022-12-18T11:53:12.930Z,-0.43
2022-12-18T11:55:51.985Z,-0.31
2022-12-18T11:58:38.691Z,-0.20
2022-12-18T12:01:32.053Z,-0.25
2022-12-18T12:04:13.253Z,-0.22
2022-12-18T12:06:52.004Z,-0.27
2022-12-18T12:09:30.246Z,-0.11
2022-12-18T12:12:18.545Z,-0.12
2022-12-18T12:15:28.256Z,-0.08
2022-12-18T12:18:19.457Z,-0.07
2022-12-18T12:20:53.635Z,0.06
2022-12-18T12:23:32.252Z,0.12
2022-12-18T12:26:24.891Z,0.02
2022-12-18T12:28:54.542Z,0.20
2022-12-18T12:31:34.592Z,0.17
2022-12-18T12:34:22.653Z,0.17
2022-12-18T12:37:12.844Z,0.28
2022-12-18T12:39:43.356Z,0.39
2022-12-18T12:42:38.265Z,0.38
2022-12-18T12:45:07.637Z,0.41
2022-12-18T12:47:41.655Z,0.41
2022-12-18T12:50:16.601Z,0.54
2022-12-18T12:52:54.386Z,0.65
2022-12-18T12:55:27.709Z,0.71
2022-12-18T12:58:19.993Z,0.74
2022-12-18T13:01:18.421Z,0.62
2022-12-18T13:04:16.260Z,0.69
2022-12-18T13:07:27.990Z,0.44
2022-12-18T13:11:56.301Z,0.48
2022-12-18T13:14:31.131Z,0.49
2022-12-18T13:17:22.711Z,0.74
2022-12-18T13:20:05.400Z,0.78
2022-12-18T13:22:45.845Z,0.69
2022-12-18T13:25:37.104Z,0.85
2022-12-18T13:28:35.872Z,0.72
2022-12-18T13:31:03.510Z,0.85
2022-12-18T13:33:29.915Z,0.81
2022-12-18T13:36:04.138Z,0.69
2022-12-18T13:38:39.357Z,0.83
2022-12-18T13:41:28.914Z,0.79
2022-12-18T13:43:58.942Z,0.87
2022-12-18T13:46:28.368Z,0.84
2022-12-18T13:48:57.013Z,0.67
2022-12-18T13:51:25.431Z,0.53
2022-12-18T13:53:51.880Z,0.60
2022-12-18T13:56:22.197Z,0.74
2022-12-18T13:59:23.227Z,0.56
2022-12-18T14:01:58.559Z,0.59
2022-12-18T14:04:36.465Z,0.64
2022-12-18T14:07:11.826Z,0.82
2022-12-18T14:10:26.093Z,0.70
2022-12-18T14:12:57.727Z,0.55
2022-12-18T14:15:27.357Z,0.56
2022-12-18T14:17:58.028Z,0.45
2022-12-18T14:20:26.738Z,0.51
2022-12-18T14:22:53.917Z,0.57
2022-12-18T14:25:23.506Z,0.59
2022-12-18T14:28:08.643Z,0.46
2022-12-18T14:30:43.555Z,0.48
2022-12-18T14:33:10.266Z,0.41
2022-12-18T14:35:40.424Z,0.54
2022-12-18T14:38:23.456Z,0.59
2022-12-18T14:40:54.472Z,0.84
2022-12-18T14:43:21.975Z,1.06
2022-12-18T14:45:50.359Z,1.12
2022-12-18T14:48:23.024Z,1.11
2022-12-18T14:51:03.540Z,1.31
2022-12-18T14:53:40.428Z,1.13
2022-12-18T14:56:21.636Z,1.10
2022-12-18T14:58:51.287Z,0.94
2022-12-18T15:01:24.992Z,1.13
2022-12-18T15:03:53.459Z,1.24
2022-12-18T15:06:38.358Z,1.24
2022-12-18T15:09:24.311Z,1.21
2022-12-18T15:11:59.643Z,1.09
2022-12-18T15:14:38.325Z,1.04
2022-12-18T15:17:15.949Z,0.81
2022-12-18T15:19:44.580Z,0.82
2022-12-18T15:22:34.765Z,0.92
2022-12-18T15:29:40.245Z,1.15
2022-12-18T15:32:20.247Z,1.07
2022-12-18T15:34:46.911Z,1.06
2022-12-18T15:37:13.476Z,1.00
2022-12-18T15:39:40.021Z,1.07
2022-12-18T15:46:43.249Z,0.94
2022-12-18T15:49:10.291Z,0.94
2022-12-18T15:51:39.293Z,0.93
2022-12-18T15:54:12.784Z,1.12
2022-12-18T15:56:57.988Z,1.13
2022-12-18T15:59:25.286Z,1.28
2022-12-18T16:01:55.970Z,1.26
2022-12-18T16:04:24.476Z,1.25
2022-12-18T16:09:41.143Z,1.39
2022-12-18T16:12:16.543Z,1.37
2022-12-18T16:14:43.731Z,1.50
2022-12-18T16:17:12.409Z,1.58
2022-12-18T16:19:39.479Z,1.58
2022-12-18T16:22:19.083Z,1.74
2022-12-18T16:24:45.675Z,1.92
2022-12-18T16:27:12.254Z,1.82
2022-12-18T16:29:38.890Z,1.85
2022-12-18T16:32:05.437Z,1.75
2022-12-18T16:34:35.914Z,1.75
2022-12-18T16:37:06.331Z,1.77
2022-12-18T16:39:34.903Z,1.57
2022-12-18T16:42:17.260Z,1.63
2022-12-18T16:44:44.806Z,1.54
2022-12-18T16:47:15.004Z,1.50
2022-12-18T16:49:42.889Z,1.46
2022-12-18T16:52:09.453Z,1.59
2022-12-18T16:54:37.259Z,1.56
2022-12-18T16:57:05.274Z,1.66
2022-12-18T16:59:32.596Z,1.79
2022-12-18T17:02:04.993Z,1.88
2022-12-18T17:04:31.765Z,1.90
2022-12-18T17:06:58.623Z,1.83
2022-12-18T17:09:25.583Z,1.75
2022-12-18T17:11:53.303Z,1.74
2022-12-18T17:14:22.305Z,1.76
2022-12-18T17:16:54.251Z,1.72
2022-12-18T17:19:35.695Z,1.74
2022-12-18T17:22:02.653Z,1.90
2022-12-18T17:24:34.507Z,1.88
2022-12-18T17:27:02.264Z,1.85
2022-12-18T17:29:28.818Z,1.86
2022-12-18T17:31:55.398Z,1.94
2022-12-18T17:34:23.856Z,2.05
2022-12-18T17:36:50.416Z,1.83
2022-12-18T17:39:19.579Z,1.84
2022-12-18T17:41:46.934Z,1.99
2022-12-18T17:44:13.758Z,2.09
2022-12-18T17:46:40.948Z,2.19
2022-12-18T17:49:07.636Z,1.94
2022-12-18T17:51:34.245Z,1.90
2022-12-18T17:54:00.800Z,2.02
2022-12-18T17:56:27.572Z,2.02
2022-12-18T17:58:54.675Z,2.01
2022-12-18T18:01:25.008Z,1.76
2022-12-18T18:03:56.384Z,1.83
2022-12-18T18:06:23.931Z,1.76
2022-12-18T18:08:51.149Z,1.84
2022-12-18T18:11:38.473Z,1.89
2022-12-18T18:14:11.165Z,2.10
2022-12-18T18:16:44.670Z,2.05
2022-12-18T18:19:16.476Z,2.09
2022-12-18T18:21:44.566Z,1.90
2022-12-18T18:24:13.861Z,1.83
2022-12-18T18:26:41.556Z,2.05
2022-12-18T18:29:08.962Z,2.09
2022-12-18T18:31:41.317Z,2.18
2022-12-18T18:34:13.375Z,2.10
2022-12-18T18:36:39.947Z,1.96
2022-12-18T18:39:07.265Z,2.06
2022-12-18T18:41:36.039Z,2.19
2022-12-18T18:44:02.769Z,1.82
2022-12-18T18:46:29.405Z,1.72
2022-12-18T18:48:56.777Z,1.79
2022-12-18T18:51:23.845Z,1.76
2022-12-18T18:53:52.570Z,1.68
2022-12-18T18:59:08.817Z,1.84
2022-12-18T19:01:35.525Z,1.93
2022-12-18T19:04:02.276Z,1.80
2022-12-18T19:06:29.794Z,1.80
2022-12-18T19:08:57.059Z,1.69
2022-12-18T19:11:44.086Z,1.79
2022-12-18T19:14:13.525Z,1.85
2022-12-18T19:16:40.553Z,1.86
2022-12-18T19:19:07.867Z,1.66
2022-12-18T19:21:35.345Z,1.58
2022-12-18T19:24:02.695Z,1.67
2022-12-18T19:26:29.813Z,1.53
2022-12-18T19:29:07.794Z,1.59
2022-12-18T19:31:37.036Z,1.61
2022-12-18T19:34:08.104Z,1.91
2022-12-18T19:36:38.632Z,1.80
2022-12-18T19:39:15.474Z,1.76
2022-12-18T19:41:43.138Z,1.81
2022-12-18T19:44:16.803Z,1.75
2022-12-18T19:46:46.032Z,1.82
2022-12-18T19:49:18.177Z,1.79
2022-12-18T19:51:47.769Z,1.79
2022-12-18T19:54:17.732Z,1.95
2022-12-18T19:56:45.352Z,2.07
2022-12-18T19:59:11.929Z,1.99
2022-12-18T20:01:38.564Z,1.94
2022-12-18T20:04:05.544Z,1.71
2022-12-18T20:06:35.186Z,1.67
2022-12-18T20:09:06.475Z,1.74
2022-12-18T20:11:41.255Z,1.68
2022-12-18T20:14:08.833Z,1.67
2022-12-18T20:16:35.467Z,1.58
2022-12-18T20:19:02.362Z,1.65
2022-12-18T20:21:29.398Z,1.60
2022-12-18T20:23:56.432Z,1.67
2022-12-18T20:26:23.899Z,1.63
2022-12-18T20:28:50.602Z,1.66
2022-12-18T20:31:17.151Z,1.60
2022-12-18T20:33:45.171Z,1.64
2022-12-18T20:36:17.607Z,1.63
2022-12-18T20:38:47.910Z,1.77
2022-12-18T20:41:20.668Z,1.74
2022-12-18T20:43:47.845Z,1.72
2022-12-18T20:46:16.751Z,1.72
2022-12-18T20:48:44.581Z,1.47
2022-12-18T20:51:14.319Z,1.58
2022-12-18T20:53:42.149Z,1.65
2022-12-18T20:56:11.416Z,1.60
2022-12-18T20:58:38.147Z,1.57
2022-12-18T21:01:16.202Z,1.74
2022-12-18T21:03:45.815Z,1.88
2022-12-18T21:06:14.165Z,1.66
2022-12-18T21:08:41.006Z,1.58
2022-12-18T21:11:38.358Z,1.55
2022-12-18T21:14:17.198Z,1.60
2022-12-18T21:16:44.138Z,1.41
2022-12-18T21:19:12.803Z,1.34
2022-12-18T21:21:40.183Z,1.37
2022-12-18T21:24:07.849Z,1.45
2022-12-18T21:26:34.414Z,1.48
2022-12-18T21:29:03.875Z,1.41
2022-12-18T21:31:33.973Z,1.42
2022-12-18T21:34:02.035Z,1.28
2022-12-18T21:36:30.277Z,1.32
2022-12-18T21:38:58.407Z,1.43
2022-12-18T21:41:45.079Z,1.48
2022-12-18T21:44:15.119Z,1.48
2022-12-18T21:46:44.670Z,1.49
2022-12-18T21:49:14.465Z,1.43
2022-12-18T21:51:41.206Z,1.54
2022-12-18T21:54:07.764Z,1.62
2022-12-18T21:56:44.426Z,1.73
2022-12-18T21:59:13.542Z,1.96
2022-12-18T22:01:40.301Z,1.92
2022-12-18T22:04:06.982Z,1.93
2022-12-18T22:06:33.825Z,1.78
2022-12-18T22:09:01.330Z,1.70
2022-12-18T22:11:27.902Z,1.66
2022-12-18T22:13:54.723Z,1.70
2022-12-18T22:16:21.639Z,1.65
2022-12-18T22:18:48.349Z,1.56
2022-12-18T22:21:33.095Z,1.51
2022-12-18T22:24:01.957Z,1.57
2022-12-18T22:26:33.833Z,1.61
2022-12-18T22:29:22.720Z,1.68
2022-12-18T22:31:49.717Z,1.75
2022-12-18T22:34:19.436Z,1.85
2022-12-18T22:36:49.958Z,2.15
2022-12-18T22:39:20.091Z,2.02
2022-12-18T22:41:47.174Z,2.14
2022-12-18T22:44:15.715Z,2.07
2022-12-18T22:46:49.296Z,1.96
2022-12-18T22:49:26.970Z,1.90
2022-12-18T22:51:53.618Z,1.87
2022-12-18T22:54:20.934Z,1.79
2022-12-18T22:56:47.677Z,1.83
2022-12-18T22:59:17.455Z,1.95
2022-12-18T23:01:45.048Z,1.78
2022-12-18T23:04:13.311Z,1.83
2022-12-18T23:06:40.609Z,1.61
2022-12-18T23:09:07.749Z,1.64
2022-12-18T23:11:34.269Z,1.51
2022-12-18T23:14:00.825Z,1.69
2022-12-18T23:16:28.137Z,1.54
2022-12-18T23:18:55.866Z,1.66
2022-12-18T23:21:23.140Z,1.66
2022-12-18T23:23:50.970Z,1.98
2022-12-18T23:26:23.541Z,2.02
2022-12-18T23:28:52.127Z,1.98
2022-12-18T23:31:27.628Z,1.95
2022-12-18T23:33:56.803Z,1.93
2022-12-18T23:36:23.741Z,2.01
2022-12-18T23:38:52.875Z,2.14
2022-12-18T23:41:21.546Z,2.14
2022-12-18T23:43:48.873Z,1.98
2022-12-18T23:46:27.286Z,1.92
2022-12-18T23:49:01.344Z,2.07
2022-12-18T23:51:29.217Z,2.07
2022-12-18T23:53:57.931Z,2.04
2022-12-18T23:56:25.492Z,1.88
2022-12-18T23:58:52.886Z,1.96
